createdAt,value
2017-06-21T00:00:02.236Z,18.61
2017-06-21T00:02:31.345Z,18.54
2017-06-21T00:05:00.400Z,18.45
2017-06-21T00:07:29.440Z,18.38
2017-06-21T00:09:58.537Z,18.34
2017-06-21T00:12:27.604Z,18.32
2017-06-21T00:14:56.676Z,18.29
2017-06-21T00:17:25.737Z,18.25
2017-06-21T00:19:54.772Z,18.24
2017-06-21T00:22:23.829Z,18.26
2017-06-21T00:24:52.901Z,18.21
2017-06-21T00:27:21.956Z,18.17
2017-06-21T00:29:51.037Z,18.12
2017-06-21T00:32:20.092Z,18.09
2017-06-21T00:34:49.175Z,18.03
2017-06-21T00:37:18.236Z,17.98
2017-06-21T00:39:47.316Z,17.92
2017-06-21T00:42:16.378Z,17.88
2017-06-21T00:44:45.429Z,17.84
2017-06-21T00:47:14.571Z,17.73
2017-06-21T00:49:43.630Z,17.64
2017-06-21T00:52:12.688Z,17.68
2017-06-21T00:54:41.748Z,17.60
2017-06-21T00:57:10.823Z,17.59
2017-06-21T00:59:40.097Z,17.59
2017-06-21T01:02:09.171Z,17.60
2017-06-21T01:04:38.215Z,17.61
2017-06-21T01:07:07.264Z,17.58
2017-06-21T01:09:36.337Z,17.53
2017-06-21T01:12:05.401Z,17.44
2017-06-21T01:14:34.518Z,17.37
2017-06-21T01:17:03.616Z,17.33
2017-06-21T01:19:32.669Z,17.31
2017-06-21T01:22:01.737Z,17.39
2017-06-21T01:24:30.801Z,17.30
2017-06-21T01:26:59.864Z,17.27
2017-06-21T01:29:28.990Z,17.24
2017-06-21T01:31:58.061Z,17.23
2017-06-21T01:34:27.139Z,17.18
2017-06-21T01:36:56.196Z,17.13
2017-06-21T01:39:25.247Z,17.10
2017-06-21T01:41:54.307Z,17.08
2017-06-21T01:44:23.376Z,17.06
2017-06-21T01:46:52.445Z,17.05
2017-06-21T01:49:21.495Z,17.09
2017-06-21T01:51:50.548Z,17.14
2017-06-21T01:54:19.604Z,17.09
2017-06-21T01:56:48.653Z,17.03
2017-06-21T01:59:17.719Z,16.89
2017-06-21T02:01:46.768Z,16.89
2017-06-21T02:04:15.840Z,16.87
2017-06-21T02:06:45.060Z,16.83
2017-06-21T02:09:14.148Z,16.79
2017-06-21T02:11:43.214Z,16.77
2017-06-21T02:14:12.247Z,16.76
2017-06-21T02:16:41.300Z,16.73
2017-06-21T02:19:10.382Z,16.67
2017-06-21T02:21:39.452Z,16.61
2017-06-21T02:24:08.559Z,16.61
2017-06-21T02:26:37.605Z,16.59
2017-06-21T02:29:06.705Z,16.57
2017-06-21T02:31:35.784Z,16.49
2017-06-21T02:34:04.819Z,16.40
2017-06-21T02:36:33.885Z,16.36
2017-06-21T02:39:03.184Z,16.30
2017-06-21T02:41:32.253Z,16.27
2017-06-21T02:44:01.312Z,16.23
2017-06-21T02:46:30.367Z,16.16
2017-06-21T02:48:59.457Z,16.11
2017-06-21T02:51:28.507Z,16.14
2017-06-21T02:53:57.584Z,16.08
2017-06-21T02:56:26.637Z,16.05
2017-06-21T02:58:55.700Z,15.99
2017-06-21T03:01:24.745Z,15.97
2017-06-21T03:03:54.143Z,16.00
2017-06-21T03:06:23.209Z,15.94
2017-06-21T03:08:52.254Z,15.90
2017-06-21T03:11:21.324Z,15.89
2017-06-21T03:13:50.408Z,15.93
2017-06-21T03:16:19.489Z,15.92
2017-06-21T03:18:48.548Z,15.86
2017-06-21T03:21:17.601Z,15.86
2017-06-21T03:23:46.676Z,15.85
2017-06-21T03:26:15.736Z,15.87
2017-06-21T03:28:45.884Z,15.81
2017-06-21T03:31:14.978Z,15.72
2017-06-21T03:33:44.038Z,15.70
2017-06-21T03:36:13.133Z,15.66
2017-06-21T03:38:42.204Z,15.73
2017-06-21T03:41:11.285Z,15.74
2017-06-21T03:43:40.408Z,15.75
2017-06-21T03:46:09.829Z,15.66
2017-06-21T03:48:38.921Z,15.63
2017-06-21T03:51:07.980Z,15.62
2017-06-21T03:53:37.028Z,15.63
2017-06-21T03:56:06.121Z,15.63
2017-06-21T03:58:35.164Z,15.60
2017-06-21T04:01:04.216Z,15.58
2017-06-21T04:03:33.505Z,15.62
2017-06-21T04:06:02.580Z,15.66
2017-06-21T04:08:31.655Z,15.77
2017-06-21T04:11:00.699Z,15.81
2017-06-21T04:13:29.749Z,15.82
2017-06-21T04:15:58.814Z,15.81
2017-06-21T04:18:27.885Z,15.81
2017-06-21T04:20:56.956Z,15.88
2017-06-21T04:23:26.004Z,15.92
2017-06-21T04:25:55.082Z,15.88
2017-06-21T04:28:24.328Z,15.87
2017-06-21T04:30:53.383Z,15.96
2017-06-21T04:33:22.485Z,15.98
2017-06-21T04:35:51.537Z,16.04
2017-06-21T04:38:20.606Z,16.12
2017-06-21T04:40:49.665Z,16.16
2017-06-21T04:43:18.715Z,16.15
2017-06-21T04:45:47.804Z,16.18
2017-06-21T04:48:17.064Z,16.24
2017-06-21T04:50:46.110Z,16.37
2017-06-21T04:53:15.218Z,16.42
2017-06-21T04:55:44.289Z,16.44
2017-06-21T04:58:13.362Z,16.40
2017-06-21T05:00:42.633Z,16.53
2017-06-21T05:03:11.701Z,16.60
2017-06-21T05:05:40.774Z,16.73
2017-06-21T05:08:09.865Z,16.79
2017-06-21T05:10:38.903Z,16.88
2017-06-21T05:13:07.944Z,16.99
2017-06-21T05:15:37.025Z,16.99
2017-06-21T05:18:06.105Z,16.91
2017-06-21T05:20:35.127Z,16.84
2017-06-21T05:23:04.300Z,16.78
2017-06-21T05:25:33.328Z,16.65
2017-06-21T05:28:02.391Z,16.49
2017-06-21T05:30:31.476Z,16.46
2017-06-21T05:33:00.539Z,16.49
2017-06-21T05:35:29.605Z,16.48
2017-06-21T05:37:58.651Z,16.45
2017-06-21T05:40:27.737Z,16.47
2017-06-21T05:42:56.809Z,16.50
2017-06-21T05:45:25.865Z,16.63
2017-06-21T05:47:54.930Z,16.77
2017-06-21T05:50:24.271Z,16.91
2017-06-21T05:52:53.359Z,16.96
2017-06-21T05:55:22.408Z,17.00
2017-06-21T05:57:51.667Z,17.14
2017-06-21T06:00:20.744Z,17.26
2017-06-21T06:02:49.798Z,17.43
2017-06-21T06:05:18.888Z,17.60
2017-06-21T06:07:47.940Z,17.70
2017-06-21T06:10:17.025Z,17.72
2017-06-21T06:12:46.075Z,17.75
2017-06-21T06:15:15.140Z,17.79
2017-06-21T06:17:44.168Z,17.85
2017-06-21T06:20:13.256Z,17.97
2017-06-21T06:22:42.307Z,18.14
2017-06-21T06:25:11.372Z,18.28
2017-06-21T06:27:40.433Z,18.25
2017-06-21T06:30:09.759Z,18.17
2017-06-21T06:32:38.841Z,18.25
2017-06-21T06:35:07.893Z,18.27
2017-06-21T06:37:36.968Z,18.29
2017-06-21T06:40:06.126Z,18.40
2017-06-21T06:42:35.184Z,18.44
2017-06-21T06:45:04.277Z,18.58
2017-06-21T06:47:33.371Z,18.74
2017-06-21T06:50:02.430Z,18.98
2017-06-21T06:52:31.538Z,19.17
2017-06-21T06:55:00.560Z,19.24
2017-06-21T06:57:29.644Z,19.37
2017-06-21T06:59:58.738Z,19.49
2017-06-21T07:02:27.765Z,19.60
2017-06-21T07:04:56.829Z,19.67
2017-06-21T07:07:25.899Z,19.75
2017-06-21T07:09:54.973Z,19.73
2017-06-21T07:12:24.036Z,19.59
2017-06-21T07:14:53.076Z,19.62
2017-06-21T07:17:22.161Z,19.66
2017-06-21T07:19:51.208Z,19.66
2017-06-21T07:22:20.376Z,19.76
2017-06-21T07:24:49.451Z,19.90
2017-06-21T07:27:18.783Z,20.13
2017-06-21T07:29:47.846Z,20.39
2017-06-21T07:32:16.891Z,20.53
2017-06-21T07:34:45.938Z,20.66
2017-06-21T07:37:15.042Z,20.87
2017-06-21T07:39:44.092Z,20.98
2017-06-21T07:42:13.180Z,21.15
2017-06-21T07:44:42.234Z,21.36
2017-06-21T07:47:11.283Z,21.51
2017-06-21T07:49:40.400Z,21.76
2017-06-21T07:52:09.888Z,21.75
2017-06-21T07:54:38.991Z,21.58
2017-06-21T07:57:08.054Z,21.57
2017-06-21T07:59:37.115Z,21.62
2017-06-21T08:02:06.164Z,21.69
2017-06-21T08:04:35.227Z,21.65
2017-06-21T08:07:04.326Z,21.71
2017-06-21T08:09:33.372Z,21.75
2017-06-21T08:12:02.479Z,21.91
2017-06-21T08:14:31.552Z,21.94
2017-06-21T08:17:00.620Z,21.99
2017-06-21T08:19:29.782Z,22.29
2017-06-21T08:21:58.864Z,22.48
2017-06-21T08:24:27.933Z,22.55
2017-06-21T08:26:57.835Z,22.66
2017-06-21T08:29:26.905Z,22.70
2017-06-21T08:31:55.949Z,22.81
2017-06-21T08:34:25.017Z,22.81
2017-06-21T08:36:54.071Z,23.00
2017-06-21T08:39:23.148Z,23.20
2017-06-21T08:41:52.203Z,23.42
2017-06-21T08:44:21.268Z,23.39
2017-06-21T08:46:50.312Z,23.50
2017-06-21T08:49:19.363Z,23.51
2017-06-21T08:51:48.417Z,23.53
2017-06-21T08:54:17.484Z,23.45
2017-06-21T08:56:46.558Z,23.42
2017-06-21T08:59:15.672Z,23.51
2017-06-21T09:01:44.726Z,23.64
2017-06-21T09:04:13.795Z,23.83
2017-06-21T09:06:42.865Z,23.86
2017-06-21T09:09:11.969Z,23.77
2017-06-21T09:11:41.020Z,23.83
2017-06-21T09:14:10.100Z,24.00
2017-06-21T09:16:39.183Z,24.29
2017-06-21T09:19:08.204Z,24.63
2017-06-21T09:21:37.275Z,24.90
2017-06-21T09:24:06.334Z,24.96
2017-06-21T09:26:35.412Z,25.05
2017-06-21T09:29:04.455Z,25.05
2017-06-21T09:31:33.508Z,25.00
2017-06-21T09:34:02.580Z,24.91
2017-06-21T09:36:31.832Z,24.92
2017-06-21T09:39:01.505Z,25.09
2017-06-21T09:41:30.577Z,25.28
2017-06-21T09:43:59.654Z,25.34
2017-06-21T09:46:28.725Z,25.23
2017-06-21T09:48:57.795Z,25.29
2017-06-21T09:51:26.872Z,25.53
2017-06-21T09:53:55.957Z,25.38
2017-06-21T09:56:25.021Z,25.37
2017-06-21T09:58:54.075Z,25.46
2017-06-21T10:01:23.140Z,25.48
2017-06-21T10:03:52.212Z,25.40
2017-06-21T10:06:21.282Z,25.31
2017-06-21T10:08:50.347Z,25.41
2017-06-21T10:11:19.407Z,25.58
2017-06-21T10:13:48.492Z,25.69
2017-06-21T10:16:17.557Z,25.79
2017-06-21T10:18:46.624Z,25.83
2017-06-21T10:21:15.696Z,26.01
2017-06-21T10:23:44.763Z,26.11
2017-06-21T10:26:13.855Z,26.37
2017-06-21T10:28:42.924Z,26.43
2017-06-21T10:31:11.995Z,26.72
2017-06-21T10:33:41.042Z,26.87
2017-06-21T10:36:10.223Z,26.73
2017-06-21T10:38:39.280Z,26.54
2017-06-21T10:41:08.336Z,26.43
2017-06-21T10:43:37.412Z,26.33
2017-06-21T10:46:06.443Z,26.44
2017-06-21T10:48:35.588Z,26.71
2017-06-21T10:51:04.674Z,26.97
2017-06-21T10:53:33.727Z,26.97
2017-06-21T10:56:02.784Z,26.84
2017-06-21T10:58:31.849Z,26.62
2017-06-21T11:01:00.931Z,26.44
2017-06-21T11:03:30.003Z,26.41
2017-06-21T11:05:59.063Z,26.43
2017-06-21T11:08:28.127Z,26.61
2017-06-21T11:10:57.194Z,26.66
2017-06-21T11:13:26.247Z,26.77
2017-06-21T11:15:55.320Z,26.98
2017-06-21T11:18:24.447Z,26.87
2017-06-21T11:20:53.539Z,26.86
2017-06-21T11:23:22.805Z,26.88
2017-06-21T11:25:51.880Z,26.91
2017-06-21T11:28:20.964Z,26.84
2017-06-21T11:30:50.046Z,26.90
2017-06-21T11:33:19.124Z,26.90
2017-06-21T11:35:48.180Z,27.01
2017-06-21T11:38:17.246Z,27.08
2017-06-21T11:40:46.293Z,27.19
2017-06-21T11:43:15.353Z,27.36
2017-06-21T11:45:44.442Z,27.47
2017-06-21T11:48:13.509Z,27.64
2017-06-21T11:50:42.570Z,27.64
2017-06-21T11:53:11.635Z,27.42
2017-06-21T11:55:40.713Z,27.45
2017-06-21T11:58:09.776Z,27.28
2017-06-21T12:00:38.836Z,27.20
2017-06-21T12:03:07.913Z,27.22
2017-06-21T12:05:36.974Z,27.25
2017-06-21T12:08:06.057Z,27.31
2017-06-21T12:10:35.120Z,27.36
2017-06-21T12:13:04.213Z,27.54
2017-06-21T12:15:33.355Z,27.63
2017-06-21T12:18:02.458Z,27.63
2017-06-21T12:20:31.499Z,27.62
2017-06-21T12:23:00.595Z,27.58
2017-06-21T12:25:29.645Z,27.57
2017-06-21T12:27:58.691Z,27.55
2017-06-21T12:30:28.019Z,27.59
2017-06-21T12:32:57.080Z,27.63
2017-06-21T12:35:26.154Z,27.71
2017-06-21T12:37:55.228Z,27.68
2017-06-21T12:40:24.328Z,27.67
2017-06-21T12:42:53.396Z,27.64
2017-06-21T12:45:22.449Z,27.58
2017-06-21T12:47:51.545Z,27.58
2017-06-21T12:50:20.604Z,27.66
2017-06-21T12:52:49.856Z,27.80
2017-06-21T12:55:18.907Z,27.99
2017-06-21T12:57:47.973Z,28.19
2017-06-21T13:00:17.073Z,28.43
2017-06-21T13:02:46.148Z,28.58
2017-06-21T13:05:15.214Z,28.58
2017-06-21T13:07:45.101Z,28.58
2017-06-21T13:10:14.207Z,28.56
2017-06-21T13:12:43.254Z,28.40
2017-06-21T13:15:12.378Z,28.31
2017-06-21T13:17:41.440Z,28.26
2017-06-21T13:20:10.516Z,28.21
2017-06-21T13:22:39.571Z,28.29
2017-06-21T13:25:08.784Z,28.32
2017-06-21T13:27:37.851Z,28.36
2017-06-21T13:30:06.976Z,28.48
2017-06-21T13:32:36.040Z,28.56
2017-06-21T13:35:05.144Z,28.57
2017-06-21T13:37:34.240Z,28.55
2017-06-21T13:40:03.327Z,28.57
2017-06-21T13:42:32.400Z,28.57
2017-06-21T13:45:01.511Z,28.57
2017-06-21T13:47:30.564Z,28.60
2017-06-21T13:49:59.632Z,28.59
2017-06-21T13:52:28.693Z,28.56
2017-06-21T13:54:57.736Z,28.58
2017-06-21T13:57:26.820Z,28.56
2017-06-21T13:59:57.352Z,28.54
2017-06-21T14:02:26.399Z,28.57
2017-06-21T14:04:55.514Z,28.53
2017-06-21T14:07:24.542Z,28.58
2017-06-21T14:09:53.761Z,28.58
2017-06-21T14:12:22.823Z,28.48
2017-06-21T14:14:51.909Z,28.41
2017-06-21T14:17:20.955Z,28.44
2017-06-21T14:19:50.061Z,28.40
2017-06-21T14:22:19.123Z,28.51
2017-06-21T14:24:48.197Z,28.62
2017-06-21T14:27:17.297Z,28.70
2017-06-21T14:29:46.336Z,28.75
2017-06-21T14:32:15.396Z,28.81
2017-06-21T14:34:44.464Z,28.80
2017-06-21T14:37:13.867Z,28.79
2017-06-21T14:39:42.921Z,28.81
2017-06-21T14:42:12.035Z,28.82
2017-06-21T14:44:41.045Z,28.83
2017-06-21T14:47:10.144Z,28.72
2017-06-21T14:49:39.221Z,28.70
2017-06-21T14:52:08.295Z,28.70
2017-06-21T14:54:37.379Z,28.64
2017-06-21T14:57:06.436Z,28.69
2017-06-21T14:59:35.502Z,28.76
2017-06-21T15:02:04.568Z,28.88
2017-06-21T15:04:33.648Z,28.97
2017-06-21T15:07:02.736Z,28.94
2017-06-21T15:09:31.812Z,28.90
2017-06-21T15:12:00.906Z,28.91
2017-06-21T15:14:29.971Z,28.99
2017-06-21T15:16:59.038Z,28.98
2017-06-21T15:19:28.103Z,28.90
2017-06-21T15:21:57.179Z,28.89
2017-06-21T15:24:26.232Z,28.82
2017-06-21T15:26:55.285Z,28.79
2017-06-21T15:29:24.378Z,28.83
2017-06-21T15:31:53.447Z,28.76
2017-06-21T15:34:22.485Z,28.78
2017-06-21T15:36:51.824Z,28.81
2017-06-21T15:39:20.929Z,28.82
2017-06-21T15:41:49.960Z,28.83
2017-06-21T15:44:19.050Z,28.90
2017-06-21T15:46:48.111Z,28.92
2017-06-21T15:49:17.161Z,28.91
2017-06-21T15:51:46.215Z,28.93
2017-06-21T15:54:15.335Z,28.96
2017-06-21T15:56:44.408Z,28.89
2017-06-21T15:59:13.458Z,28.86
2017-06-21T16:01:42.524Z,28.84
2017-06-21T16:04:11.595Z,28.85
2017-06-21T16:06:40.685Z,28.88
2017-06-21T16:09:09.763Z,28.99
2017-06-21T16:11:38.942Z,28.99
2017-06-21T16:14:08.200Z,29.03
2017-06-21T16:16:37.259Z,29.03
2017-06-21T16:19:06.332Z,29.08
2017-06-21T16:21:36.200Z,29.14
2017-06-21T16:24:05.287Z,29.16
2017-06-21T16:26:34.344Z,29.16
2017-06-21T16:29:04.185Z,29.15
2017-06-21T16:31:33.251Z,29.02
2017-06-21T16:34:03.188Z,28.98
2017-06-21T16:36:33.046Z,28.97
2017-06-21T16:39:02.140Z,28.94
2017-06-21T16:41:31.204Z,28.88
2017-06-21T16:44:00.279Z,28.85
2017-06-21T16:46:30.081Z,28.81
2017-06-21T16:48:59.669Z,28.83
2017-06-21T16:51:28.725Z,28.84
2017-06-21T16:53:57.767Z,28.89
2017-06-21T16:56:27.067Z,28.98
2017-06-21T16:58:56.136Z,28.96
2017-06-21T17:01:25.373Z,28.88
2017-06-21T17:03:54.424Z,28.88
2017-06-21T17:06:23.509Z,28.93
2017-06-21T17:08:52.597Z,28.94
2017-06-21T17:11:21.676Z,28.91
2017-06-21T17:13:50.788Z,28.85
2017-06-21T17:16:19.819Z,28.86
2017-06-21T17:18:49.655Z,28.85
2017-06-21T17:21:18.734Z,28.83
2017-06-21T17:23:48.658Z,28.80
2017-06-21T17:26:17.774Z,28.79
2017-06-21T17:28:46.857Z,28.75
2017-06-21T17:31:15.905Z,28.81
2017-06-21T17:33:44.988Z,28.81
2017-06-21T17:36:14.064Z,28.83
2017-06-21T17:38:43.143Z,28.80
2017-06-21T17:41:12.237Z,28.74
2017-06-21T17:43:41.288Z,28.71
2017-06-21T17:46:11.298Z,28.78
2017-06-21T17:48:41.458Z,28.70
2017-06-21T17:51:10.552Z,28.69
2017-06-21T17:53:40.376Z,28.68
2017-06-21T17:56:09.440Z,28.67
2017-06-21T17:58:39.311Z,28.60
2017-06-21T18:01:08.368Z,28.59
2017-06-21T18:03:37.457Z,28.54
2017-06-21T18:06:06.515Z,28.53
2017-06-21T18:08:35.564Z,28.44
2017-06-21T18:11:04.643Z,28.43
2017-06-21T18:13:34.364Z,28.39
2017-06-21T18:16:04.223Z,28.38
2017-06-21T18:18:33.302Z,28.35
2017-06-21T18:21:02.356Z,28.25
2017-06-21T18:23:31.432Z,28.21
2017-06-21T18:26:00.504Z,28.20
2017-06-21T18:28:29.602Z,28.21
2017-06-21T18:30:59.458Z,28.23
2017-06-21T18:33:30.365Z,28.23
2017-06-21T18:36:02.359Z,28.23
2017-06-21T18:38:31.452Z,28.19
2017-06-21T18:41:00.537Z,28.18
2017-06-21T18:43:30.356Z,28.27
2017-06-21T18:46:00.189Z,28.26
2017-06-21T18:48:29.251Z,28.33
2017-06-21T18:50:59.076Z,28.48
2017-06-21T18:53:28.165Z,28.51
2017-06-21T18:55:57.209Z,28.55
2017-06-21T18:58:26.269Z,28.59
2017-06-21T19:00:55.618Z,28.64
2017-06-21T19:03:24.693Z,28.66
2017-06-21T19:05:53.734Z,28.67
2017-06-21T19:08:23.599Z,28.67
2017-06-21T19:10:52.657Z,28.64
2017-06-21T19:13:22.491Z,28.51
2017-06-21T19:15:51.563Z,28.36
2017-06-21T19:18:21.404Z,28.28
2017-06-21T19:20:50.452Z,28.21
2017-06-21T19:23:19.521Z,28.12
2017-06-21T19:25:48.597Z,28.04
2017-06-21T19:28:17.645Z,27.90
2017-06-21T19:30:46.992Z,27.81
2017-06-21T19:33:16.064Z,27.70
2017-06-21T19:35:45.125Z,27.59
2017-06-21T19:38:14.234Z,27.47
2017-06-21T19:40:44.084Z,27.41
2017-06-21T19:43:13.497Z,27.30
2017-06-21T19:45:42.542Z,27.20
2017-06-21T19:48:12.384Z,27.07
2017-06-21T19:50:41.481Z,27.00
2017-06-21T19:53:10.723Z,26.89
2017-06-21T19:55:39.824Z,26.85
2017-06-21T19:58:09.116Z,26.75
2017-06-21T20:00:38.151Z,26.58
2017-06-21T20:03:08.003Z,26.45
2017-06-21T20:05:37.084Z,26.33
2017-06-21T20:08:06.254Z,26.25
2017-06-21T20:10:36.197Z,26.12
2017-06-21T20:13:05.478Z,26.00
2017-06-21T20:15:35.420Z,25.85
2017-06-21T20:18:04.500Z,25.78
2017-06-21T20:20:33.558Z,25.75
2017-06-21T20:23:03.231Z,25.66
2017-06-21T20:25:32.338Z,25.60
2017-06-21T20:28:01.392Z,25.55
2017-06-21T20:30:30.458Z,25.50
2017-06-21T20:32:59.679Z,25.47
2017-06-21T20:35:29.085Z,25.45
2017-06-21T20:37:58.220Z,25.43
2017-06-21T20:40:27.272Z,25.41
2017-06-21T20:42:56.361Z,25.38
2017-06-21T20:45:25.448Z,25.35
2017-06-21T20:47:54.652Z,25.32
2017-06-21T20:50:23.872Z,25.28
2017-06-21T20:52:52.952Z,25.26
2017-06-21T20:55:22.062Z,25.26
2017-06-21T20:57:51.124Z,25.23
2017-06-21T21:00:20.218Z,25.17
2017-06-21T21:02:49.312Z,25.13
2017-06-21T21:05:18.605Z,25.04
2017-06-21T21:07:47.747Z,24.89
2017-06-21T21:10:16.899Z,24.78
2017-06-21T21:12:45.976Z,24.75
2017-06-21T21:15:15.027Z,24.74
2017-06-21T21:17:44.099Z,24.72
2017-06-21T21:20:13.986Z,24.66
2017-06-21T21:22:43.040Z,24.61
2017-06-21T21:25:12.124Z,24.54
2017-06-21T21:27:41.194Z,24.47
2017-06-21T21:30:10.320Z,24.40
2017-06-21T21:32:39.720Z,24.33
2017-06-21T21:35:08.823Z,24.23
2017-06-21T21:37:38.610Z,24.14
2017-06-21T21:40:07.914Z,24.10
2017-06-21T21:42:37.735Z,24.00
2017-06-21T21:45:06.843Z,23.91
2017-06-21T21:47:35.896Z,23.83
2017-06-21T21:50:05.712Z,23.78
2017-06-21T21:52:35.590Z,23.75
2017-06-21T21:55:04.674Z,23.69
2017-06-21T21:57:33.756Z,23.60
2017-06-21T22:00:02.911Z,23.51
2017-06-21T22:02:31.936Z,23.47
2017-06-21T22:05:01.017Z,23.45
2017-06-21T22:07:31.233Z,23.42
2017-06-21T22:10:01.077Z,23.35
2017-06-21T22:12:30.146Z,23.36
2017-06-21T22:15:00.976Z,23.28
2017-06-21T22:17:30.817Z,23.18
2017-06-21T22:19:59.873Z,23.16
2017-06-21T22:22:29.688Z,23.14
2017-06-21T22:24:59.526Z,23.11
2017-06-21T22:27:28.584Z,23.10
2017-06-21T22:29:57.665Z,23.08
2017-06-21T22:32:26.864Z,23.02
2017-06-21T22:34:55.935Z,22.97
2017-06-21T22:37:25.005Z,22.90
2017-06-21T22:39:54.816Z,22.85
2017-06-21T22:42:23.904Z,22.84
2017-06-21T22:44:52.966Z,22.80
2017-06-21T22:47:22.032Z,22.76
2017-06-21T22:49:51.085Z,22.73
2017-06-21T22:52:20.144Z,22.65
2017-06-21T22:54:49.244Z,22.60
2017-06-21T22:57:18.309Z,22.58
2017-06-21T22:59:47.564Z,22.55
2017-06-21T23:02:17.546Z,22.49
2017-06-21T23:04:46.594Z,22.48
2017-06-21T23:07:15.637Z,22.42
2017-06-21T23:09:44.728Z,22.39
2017-06-21T23:12:13.783Z,22.41
2017-06-21T23:14:42.823Z,22.39
2017-06-21T23:17:11.884Z,22.43
2017-06-21T23:19:40.924Z,22.46
2017-06-21T23:22:10.792Z,22.50
2017-06-21T23:24:39.997Z,22.48
2017-06-21T23:27:09.884Z,22.49
2017-06-21T23:29:38.946Z,22.43
2017-06-21T23:32:08.019Z,22.39
2017-06-21T23:34:37.084Z,22.37
2017-06-21T23:37:06.146Z,22.34
2017-06-21T23:39:35.963Z,22.30
2017-06-21T23:42:05.063Z,22.26
2017-06-21T23:44:34.860Z,22.21
2017-06-21T23:47:04.732Z,22.17
2017-06-21T23:49:33.797Z,22.15
2017-06-21T23:52:02.860Z,22.15
2017-06-21T23:54:32.692Z,22.11
2017-06-21T23:57:01.780Z,22.05
2017-06-21T23:59:30.848Z,22.04
